Airfield :
LOGIN :

Register | Disclaimer

   EN    FR    IT 

 










Legend :    VFR   Marginal VFR   IFR   Intensive IFR   Very Intensive IFR
Visi :
Ceiling :
>= 8 km
>= 3000ft
5 to 8 km
1000 to 3000 ft
1500m to 5 km
500 to 1000 ft
800 to 1500m
200 to 500 ft
< 800m
< 200 ft
Symbols :   Thunderstorms  Fog  Heavy snow  Heavy precipitations  Wind > 20 kt
SIGMETs :     Misc.  Thunderstorms  Icing  Turbulence  Mountain Waves  Volcanic Ashes






- Airport Elevation : 336 ft
- IATA code : GCI


EGJB - Guernsey

CURRENT METAR :
  • 241020Z 10007KT 6000 -DZ SCT005 BKN012 05/04 Q1023

EXPIRED METARs :
  • 240950Z 11009KT 6000 -DZ BKN005 BKN013 05/04 Q1023
  • 240920Z 09006KT 050V130 7000 -RA FEW005 SCT009 BKN013 06/05 Q1022
  • 240850Z 08006KT 6000 -RA FEW005 BKN013 06/05 Q1022
  • 240820Z 10007KT 5000 HZ FEW005 BKN012 06/05 Q1022
  • 240750Z 11006KT 5000 HZ FEW005 BKN012 06/05 Q1022

TAF TAF EGJB
Valid from the 24 at 09:00 until the 24 at 18:00 UTC


240804Z 2409/2418 09008KT 9000 FEW007 BKN012
PROB30
TEMPO 2409/2412 5000 BR BKN005
TEMPO 2412/2418 SCT015
ATIS : +44 1481 238 957



MET'MAP, your aeronautical weather chart ! - Copyright ORBIFLY December 2007 - Disclaimer

ORBIFLY MET'MAP TEAM :

Programming & Development : Alexandra Zaïnal
Concept & original design : Baudouin d'Aumeries
Assistance for programming : Marc-Olivier Méhu
Technical & hardware support : Manuel Goepfert

Contact : metmap@orbifly.com




SOURCES & CREDITS :

   NOAA